X  Cerrar Datos meteorológicos de aviación METAR     LEAL Alicante-Elche Miguel Hernández Airport
Temperatura
21°C Temperatura
10°C Punto de rocío
50% Humedad



Viento
10 KM/H
6 MPH
3 M/S
5 NUDO



90°
E
Condiciones actuales

Claro Claro
Presión 1014.9 (hPa) - 29.97 (inHg)
Visibilidad 6 (milla) - 9.7 (km)
Aeropuerto
Código de aeropuerto LEAL

localidad: Alicante-Elche Miguel Hernández Airport
Distancia: 14 (km)

Metar:
LEAL 160930Z 09005KT 060V120 CAVOK 21/10 Q1015 NOSIG

Hora: 16-04-2024 11:30 CEST